sensor_id;sensor_type;location;lat;lon;timestamp;temperature;humidity
25188;DHT22;13141;50.414;8.050;2023-12-14T00:01:48;5.60;99.90
25188;DHT22;13141;50.414;8.050;2023-12-14T00:04:13;5.60;99.90
25188;DHT22;13141;50.414;8.050;2023-12-14T00:06:39;5.70;99.90
25188;DHT22;13141;50.414;8.050;2023-12-14T00:09:05;5.70;99.90
25188;DHT22;13141;50.414;8.050;2023-12-14T00:11:31;5.70;99.90
25188;DHT22;13141;50.414;8.050;2023-12-14T00:13:56;5.60;99.90
25188;DHT22;13141;50.414;8.050;2023-12-14T00:16:22;5.60;99.90
25188;DHT22;13141;50.414;8.050;2023-12-14T00:18:49;5.70;99.90
25188;DHT22;13141;50.414;8.050;2023-12-14T00:21:15;5.60;99.90
25188;DHT22;13141;50.414;8.050;2023-12-14T00:23:41;5.70;99.90
25188;DHT22;13141;50.414;8.050;2023-12-14T00:26:06;5.70;99.90
25188;DHT22;13141;50.414;8.050;2023-12-14T00:28:32;5.70;99.90
25188;DHT22;13141;50.414;8.050;2023-12-14T00:30:57;5.70;99.90
25188;DHT22;13141;50.414;8.050;2023-12-14T00:33:23;5.70;99.90
25188;DHT22;13141;50.414;8.050;2023-12-14T00:35:51;5.70;99.90
25188;DHT22;13141;50.414;8.050;2023-12-14T00:38:16;5.70;99.90
25188;DHT22;13141;50.414;8.050;2023-12-14T00:40:42;5.70;99.90
25188;DHT22;13141;50.414;8.050;2023-12-14T00:43:08;5.70;99.90
25188;DHT22;13141;50.414;8.050;2023-12-14T00:45:33;5.70;99.90
25188;DHT22;13141;50.414;8.050;2023-12-14T00:47:59;5.60;99.90
25188;DHT22;13141;50.414;8.050;2023-12-14T00:50:25;5.60;99.90
25188;DHT22;13141;50.414;8.050;2023-12-14T00:52:52;5.70;99.90
25188;DHT22;13141;50.414;8.050;2023-12-14T00:55:18;5.60;99.90
25188;DHT22;13141;50.414;8.050;2023-12-14T00:57:43;5.60;99.90
25188;DHT22;13141;50.414;8.050;2023-12-14T01:00:10;5.40;99.90
25188;DHT22;13141;50.414;8.050;2023-12-14T01:02:36;5.30;99.90
25188;DHT22;13141;50.414;8.050;2023-12-14T01:05:02;5.30;99.90
25188;DHT22;13141;50.414;8.050;2023-12-14T01:07:28;5.30;99.90
25188;DHT22;13141;50.414;8.050;2023-12-14T01:09:54;5.40;99.90
25188;DHT22;13141;50.414;8.050;2023-12-14T01:12:20;5.10;99.90
25188;DHT22;13141;50.414;8.050;2023-12-14T01:14:46;5.10;99.90
25188;DHT22;13141;50.414;8.050;2023-12-14T01:17:12;5.10;99.90
25188;DHT22;13141;50.414;8.050;2023-12-14T01:19:39;5.10;99.90
25188;DHT22;13141;50.414;8.050;2023-12-14T01:22:05;5.00;99.90
25188;DHT22;13141;50.414;8.050;2023-12-14T01:24:31;5.00;99.90
25188;DHT22;13141;50.414;8.050;2023-12-14T01:26:58;5.00;99.90
25188;DHT22;13141;50.414;8.050;2023-12-14T01:29:24;5.00;99.90
25188;DHT22;13141;50.414;8.050;2023-12-14T01:31:50;5.00;99.90
25188;DHT22;13141;50.414;8.050;2023-12-14T01:34:16;4.90;99.90
25188;DHT22;13141;50.414;8.050;2023-12-14T01:36:42;4.80;99.90
25188;DHT22;13141;50.414;8.050;2023-12-14T01:39:08;4.70;99.90
25188;DHT22;13141;50.414;8.050;2023-12-14T01:41:33;4.70;99.90
25188;DHT22;13141;50.414;8.050;2023-12-14T01:44:00;4.70;99.90
25188;DHT22;13141;50.414;8.050;2023-12-14T01:46:26;4.80;99.90
25188;DHT22;13141;50.414;8.050;2023-12-14T01:48:52;4.80;99.90
25188;DHT22;13141;50.414;8.050;2023-12-14T01:51:18;4.80;99.90
25188;DHT22;13141;50.414;8.050;2023-12-14T01:53:43;4.70;99.90
25188;DHT22;13141;50.414;8.050;2023-12-14T01:56:09;4.70;99.90
25188;DHT22;13141;50.414;8.050;2023-12-14T01:58:35;4.70;99.90
25188;DHT22;13141;50.414;8.050;2023-12-14T02:01:08;4.70;99.90
25188;DHT22;13141;50.414;8.050;2023-12-14T02:03:44;4.70;99.90
25188;DHT22;13141;50.414;8.050;2023-12-14T02:06:10;4.80;99.90
25188;DHT22;13141;50.414;8.050;2023-12-14T02:08:35;4.80;99.90
25188;DHT22;13141;50.414;8.050;2023-12-14T02:11:01;4.80;99.90
25188;DHT22;13141;50.414;8.050;2023-12-14T02:13:27;4.80;99.90
25188;DHT22;13141;50.414;8.050;2023-12-14T02:15:53;4.70;99.90
25188;DHT22;13141;50.414;8.050;2023-12-14T02:18:20;4.70;99.90
25188;DHT22;13141;50.414;8.050;2023-12-14T02:20:45;4.70;99.90
25188;DHT22;13141;50.414;8.050;2023-12-14T02:23:12;4.80;99.90
25188;DHT22;13141;50.414;8.050;2023-12-14T02:25:38;4.80;99.90
25188;DHT22;13141;50.414;8.050;2023-12-14T02:28:04;4.70;99.90
25188;DHT22;13141;50.414;8.050;2023-12-14T02:30:29;4.70;99.90
25188;DHT22;13141;50.414;8.050;2023-12-14T02:32:55;4.70;99.90
25188;DHT22;13141;50.414;8.050;2023-12-14T02:35:21;4.80;99.90
25188;DHT22;13141;50.414;8.050;2023-12-14T02:37:46;4.70;99.90
25188;DHT22;13141;50.414;8.050;2023-12-14T02:40:13;4.70;99.90
25188;DHT22;13141;50.414;8.050;2023-12-14T02:42:39;4.80;99.90
25188;DHT22;13141;50.414;8.050;2023-12-14T02:45:07;4.80;99.90
25188;DHT22;13141;50.414;8.050;2023-12-14T02:47:33;4.90;99.90
25188;DHT22;13141;50.414;8.050;2023-12-14T02:49:59;4.90;99.90
25188;DHT22;13141;50.414;8.050;2023-12-14T02:52:24;5.30;99.90
25188;DHT22;13141;50.414;8.050;2023-12-14T02:54:50;4.90;99.90
25188;DHT22;13141;50.414;8.050;2023-12-14T02:57:17;4.90;99.90
25188;DHT22;13141;50.414;8.050;2023-12-14T02:59:43;5.00;99.90
25188;DHT22;13141;50.414;8.050;2023-12-14T03:02:09;4.90;99.90
25188;DHT22;13141;50.414;8.050;2023-12-14T03:04:37;4.90;99.90
25188;DHT22;13141;50.414;8.050;2023-12-14T03:07:03;4.90;99.90
25188;DHT22;13141;50.414;8.050;2023-12-14T03:09:29;4.80;99.90
25188;DHT22;13141;50.414;8.050;2023-12-14T03:11:54;4.90;99.90
25188;DHT22;13141;50.414;8.050;2023-12-14T03:14:22;5.00;99.90
25188;DHT22;13141;50.414;8.050;2023-12-14T03:16:47;5.10;99.90
25188;DHT22;13141;50.414;8.050;2023-12-14T03:19:13;5.20;99.90
25188;DHT22;13141;50.414;8.050;2023-12-14T03:21:39;5.20;99.90
25188;DHT22;13141;50.414;8.050;2023-12-14T03:24:05;5.10;99.90
25188;DHT22;13141;50.414;8.050;2023-12-14T03:26:30;5.10;99.90
25188;DHT22;13141;50.414;8.050;2023-12-14T03:28:56;5.10;99.90
25188;DHT22;13141;50.414;8.050;2023-12-14T03:31:23;5.20;99.90
25188;DHT22;13141;50.414;8.050;2023-12-14T03:33:49;5.20;99.90
25188;DHT22;13141;50.414;8.050;2023-12-14T03:36:15;5.30;99.90
25188;DHT22;13141;50.414;8.050;2023-12-14T03:38:41;5.30;99.90
25188;DHT22;13141;50.414;8.050;2023-12-14T03:41:07;5.40;99.90
25188;DHT22;13141;50.414;8.050;2023-12-14T03:43:34;5.40;99.90
25188;DHT22;13141;50.414;8.050;2023-12-14T03:45:59;5.40;99.90
25188;DHT22;13141;50.414;8.050;2023-12-14T03:48:26;5.40;99.90
25188;DHT22;13141;50.414;8.050;2023-12-14T03:50:52;5.10;99.90
25188;DHT22;13141;50.414;8.050;2023-12-14T03:53:18;5.50;99.90
25188;DHT22;13141;50.414;8.050;2023-12-14T03:55:44;5.50;99.90
25188;DHT22;13141;50.414;8.050;2023-12-14T03:58:09;5.50;99.90
25188;DHT22;13141;50.414;8.050;2023-12-14T04:00:35;5.50;99.90
25188;DHT22;13141;50.414;8.050;2023-12-14T04:03:01;5.50;99.90
25188;DHT22;13141;50.414;8.050;2023-12-14T04:05:28;5.50;99.90
25188;DHT22;13141;50.414;8.050;2023-12-14T04:07:53;5.50;99.90
25188;DHT22;13141;50.414;8.050;2023-12-14T04:10:19;5.50;99.90
25188;DHT22;13141;50.414;8.050;2023-12-14T04:12:45;5.60;99.90
25188;DHT22;13141;50.414;8.050;2023-12-14T04:15:10;5.60;99.90
25188;DHT22;13141;50.414;8.050;2023-12-14T04:17:36;5.60;99.90
25188;DHT22;13141;50.414;8.050;2023-12-14T04:20:04;5.60;99.90
25188;DHT22;13141;50.414;8.050;2023-12-14T04:22:32;5.60;99.90
25188;DHT22;13141;50.414;8.050;2023-12-14T04:24:57;5.60;99.90
25188;DHT22;13141;50.414;8.050;2023-12-14T04:27:23;5.60;99.90
25188;DHT22;13141;50.414;8.050;2023-12-14T04:29:48;5.60;99.90
25188;DHT22;13141;50.414;8.050;2023-12-14T04:32:14;5.60;99.90
25188;DHT22;13141;50.414;8.050;2023-12-14T04:34:40;5.50;99.90
25188;DHT22;13141;50.414;8.050;2023-12-14T04:37:06;5.40;99.90
25188;DHT22;13141;50.414;8.050;2023-12-14T04:39:33;5.40;99.90
25188;DHT22;13141;50.414;8.050;2023-12-14T04:42:00;5.40;99.90
25188;DHT22;13141;50.414;8.050;2023-12-14T04:44:26;5.40;99.90
25188;DHT22;13141;50.414;8.050;2023-12-14T04:46:52;5.70;99.90
25188;DHT22;13141;50.414;8.050;2023-12-14T04:49:18;5.50;99.90
25188;DHT22;13141;50.414;8.050;2023-12-14T04:51:44;5.50;99.90
25188;DHT22;13141;50.414;8.050;2023-12-14T04:54:10;5.50;99.90
25188;DHT22;13141;50.414;8.050;2023-12-14T04:56:37;5.60;99.90
25188;DHT22;13141;50.414;8.050;2023-12-14T04:59:03;5.60;99.90
25188;DHT22;13141;50.414;8.050;2023-12-14T05:01:30;5.70;99.90
25188;DHT22;13141;50.414;8.050;2023-12-14T05:03:56;5.20;99.90
25188;DHT22;13141;50.414;8.050;2023-12-14T05:06:22;5.70;99.90
25188;DHT22;13141;50.414;8.050;2023-12-14T05:08:47;5.70;99.90
25188;DHT22;13141;50.414;8.050;2023-12-14T05:11:13;5.80;99.90
25188;DHT22;13141;50.414;8.050;2023-12-14T05:13:40;5.70;99.90
25188;DHT22;13141;50.414;8.050;2023-12-14T05:16:12;5.70;99.90
25188;DHT22;13141;50.414;8.050;2023-12-14T05:18:37;5.80;99.90
25188;DHT22;13141;50.414;8.050;2023-12-14T05:21:03;5.80;99.90
25188;DHT22;13141;50.414;8.050;2023-12-14T05:23:29;5.80;99.90
25188;DHT22;13141;50.414;8.050;2023-12-14T05:25:55;5.80;99.90
25188;DHT22;13141;50.414;8.050;2023-12-14T05:28:20;5.80;99.90
25188;DHT22;13141;50.414;8.050;2023-12-14T05:30:47;5.80;99.90
25188;DHT22;13141;50.414;8.050;2023-12-14T05:33:15;5.80;99.90
25188;DHT22;13141;50.414;8.050;2023-12-14T05:35:40;5.90;99.90
25188;DHT22;13141;50.414;8.050;2023-12-14T05:38:06;5.90;99.90
25188;DHT22;13141;50.414;8.050;2023-12-14T05:40:32;5.90;99.90
25188;DHT22;13141;50.414;8.050;2023-12-14T05:42:57;5.90;99.90
25188;DHT22;13141;50.414;8.050;2023-12-14T05:45:23;5.90;99.90
25188;DHT22;13141;50.414;8.050;2023-12-14T05:47:50;5.90;99.90
25188;DHT22;13141;50.414;8.050;2023-12-14T05:50:16;5.90;99.90
25188;DHT22;13141;50.414;8.050;2023-12-14T05:52:42;5.90;99.90
25188;DHT22;13141;50.414;8.050;2023-12-14T05:55:08;5.90;99.90
25188;DHT22;13141;50.414;8.050;2023-12-14T05:57:34;5.80;99.90
25188;DHT22;13141;50.414;8.050;2023-12-14T05:59:59;5.80;99.90
25188;DHT22;13141;50.414;8.050;2023-12-14T06:02:25;5.90;99.90
25188;DHT22;13141;50.414;8.050;2023-12-14T06:04:52;5.90;99.90
25188;DHT22;13141;50.414;8.050;2023-12-14T06:07:18;5.70;99.90
25188;DHT22;13141;50.414;8.050;2023-12-14T06:09:45;5.90;99.90
25188;DHT22;13141;50.414;8.050;2023-12-14T06:12:11;5.90;99.90
25188;DHT22;13141;50.414;8.050;2023-12-14T06:14:37;6.10;99.90
25188;DHT22;13141;50.414;8.050;2023-12-14T06:17:03;5.90;99.90
25188;DHT22;13141;50.414;8.050;2023-12-14T06:19:29;5.90;99.90
25188;DHT22;13141;50.414;8.050;2023-12-14T06:21:56;6.10;99.90
25188;DHT22;13141;50.414;8.050;2023-12-14T06:24:22;5.90;99.90
25188;DHT22;13141;50.414;8.050;2023-12-14T06:26:47;6.00;99.90
25188;DHT22;13141;50.414;8.050;2023-12-14T06:29:13;5.90;99.90
25188;DHT22;13141;50.414;8.050;2023-12-14T06:31:39;5.90;99.90
25188;DHT22;13141;50.414;8.050;2023-12-14T06:34:06;6.00;99.90
25188;DHT22;13141;50.414;8.050;2023-12-14T06:36:32;6.00;99.90
25188;DHT22;13141;50.414;8.050;2023-12-14T06:39:00;6.00;99.90
25188;DHT22;13141;50.414;8.050;2023-12-14T06:41:27;5.90;99.90
25188;DHT22;13141;50.414;8.050;2023-12-14T06:43:53;5.90;99.90
25188;DHT22;13141;50.414;8.050;2023-12-14T06:46:19;5.90;99.90
25188;DHT22;13141;50.414;8.050;2023-12-14T06:48:45;5.90;99.90
25188;DHT22;13141;50.414;8.050;2023-12-14T06:51:11;6.00;99.90
25188;DHT22;13141;50.414;8.050;2023-12-14T06:53:40;6.40;99.90
25188;DHT22;13141;50.414;8.050;2023-12-14T06:56:08;6.10;99.90
25188;DHT22;13141;50.414;8.050;2023-12-14T06:58:34;6.10;99.90
25188;DHT22;13141;50.414;8.050;2023-12-14T07:01:00;6.10;99.90
25188;DHT22;13141;50.414;8.050;2023-12-14T07:03:26;6.10;99.90
25188;DHT22;13141;50.414;8.050;2023-12-14T07:05:51;6.10;99.90
25188;DHT22;13141;50.414;8.050;2023-12-14T07:08:17;6.10;99.90
25188;DHT22;13141;50.414;8.050;2023-12-14T07:10:43;6.10;99.90
25188;DHT22;13141;50.414;8.050;2023-12-14T07:13:11;6.20;99.90
25188;DHT22;13141;50.414;8.050;2023-12-14T07:15:36;6.10;99.90
25188;DHT22;13141;50.414;8.050;2023-12-14T07:18:02;6.10;99.90
25188;DHT22;13141;50.414;8.050;2023-12-14T07:20:28;6.10;99.90
25188;DHT22;13141;50.414;8.050;2023-12-14T07:22:54;6.20;99.90
25188;DHT22;13141;50.414;8.050;2023-12-14T07:25:23;6.10;99.90
25188;DHT22;13141;50.414;8.050;2023-12-14T07:27:51;6.20;99.90
25188;DHT22;13141;50.414;8.050;2023-12-14T07:30:18;6.20;99.90
25188;DHT22;13141;50.414;8.050;2023-12-14T07:32:44;5.80;99.90
25188;DHT22;13141;50.414;8.050;2023-12-14T07:35:10;6.30;99.90
25188;DHT22;13141;50.414;8.050;2023-12-14T07:37:39;6.10;99.90
25188;DHT22;13141;50.414;8.050;2023-12-14T07:40:06;6.20;99.90
25188;DHT22;13141;50.414;8.050;2023-12-14T07:42:34;6.20;99.90
25188;DHT22;13141;50.414;8.050;2023-12-14T07:45:00;6.20;99.90
25188;DHT22;13141;50.414;8.050;2023-12-14T07:47:27;5.80;99.90
25188;DHT22;13141;50.414;8.050;2023-12-14T07:49:53;6.40;99.90
25188;DHT22;13141;50.414;8.050;2023-12-14T07:52:21;6.30;99.90
25188;DHT22;13141;50.414;8.050;2023-12-14T07:54:47;6.60;99.90
25188;DHT22;13141;50.414;8.050;2023-12-14T07:57:13;6.60;99.90
25188;DHT22;13141;50.414;8.050;2023-12-14T07:59:38;6.40;99.90
25188;DHT22;13141;50.414;8.050;2023-12-14T08:02:07;6.60;99.90
25188;DHT22;13141;50.414;8.050;2023-12-14T08:04:37;6.60;99.90
25188;DHT22;13141;50.414;8.050;2023-12-14T08:07:03;6.60;99.90
25188;DHT22;13141;50.414;8.050;2023-12-14T08:09:29;6.40;99.90
25188;DHT22;13141;50.414;8.050;2023-12-14T08:11:55;6.40;99.90
25188;DHT22;13141;50.414;8.050;2023-12-14T08:14:21;6.00;99.90
25188;DHT22;13141;50.414;8.050;2023-12-14T08:16:48;6.40;99.90
25188;DHT22;13141;50.414;8.050;2023-12-14T08:19:14;6.60;99.90
25188;DHT22;13141;50.414;8.050;2023-12-14T08:21:44;6.30;99.90
25188;DHT22;13141;50.414;8.050;2023-12-14T08:24:09;6.40;99.90
25188;DHT22;13141;50.414;8.050;2023-12-14T08:26:36;6.40;99.90
25188;DHT22;13141;50.414;8.050;2023-12-14T08:29:02;6.50;99.90
25188;DHT22;13141;50.414;8.050;2023-12-14T08:31:30;6.10;99.90
25188;DHT22;13141;50.414;8.050;2023-12-14T08:33:56;6.40;99.90
25188;DHT22;13141;50.414;8.050;2023-12-14T08:36:26;6.60;99.90
25188;DHT22;13141;50.414;8.050;2023-12-14T08:38:58;6.70;99.90
25188;DHT22;13141;50.414;8.050;2023-12-14T08:41:24;6.80;99.90
25188;DHT22;13141;50.414;8.050;2023-12-14T08:43:50;6.80;99.90
25188;DHT22;13141;50.414;8.050;2023-12-14T08:46:17;6.90;99.90
25188;DHT22;13141;50.414;8.050;2023-12-14T08:48:43;6.90;99.90
25188;DHT22;13141;50.414;8.050;2023-12-14T08:51:11;7.20;99.90
25188;DHT22;13141;50.414;8.050;2023-12-14T08:53:37;7.20;99.90
25188;DHT22;13141;50.414;8.050;2023-12-14T08:56:05;7.00;99.90
25188;DHT22;13141;50.414;8.050;2023-12-14T08:58:31;7.00;99.90
25188;DHT22;13141;50.414;8.050;2023-12-14T09:00:57;7.10;99.90
25188;DHT22;13141;50.414;8.050;2023-12-14T09:03:25;7.10;99.90
25188;DHT22;13141;50.414;8.050;2023-12-14T09:05:51;7.20;99.90
25188;DHT22;13141;50.414;8.050;2023-12-14T09:08:17;6.70;99.90
25188;DHT22;13141;50.414;8.050;2023-12-14T09:10:44;7.20;99.90
25188;DHT22;13141;50.414;8.050;2023-12-14T09:13:13;7.40;99.90
25188;DHT22;13141;50.414;8.050;2023-12-14T09:15:41;7.30;99.90
25188;DHT22;13141;50.414;8.050;2023-12-14T09:18:07;7.50;99.90
25188;DHT22;13141;50.414;8.050;2023-12-14T09:20:32;7.50;99.90
25188;DHT22;13141;50.414;8.050;2023-12-14T09:23:00;7.50;99.90
25188;DHT22;13141;50.414;8.050;2023-12-14T09:25:27;7.50;99.90
25188;DHT22;13141;50.414;8.050;2023-12-14T09:27:55;7.60;99.90
25188;DHT22;13141;50.414;8.050;2023-12-14T09:30:22;7.60;99.90
25188;DHT22;13141;50.414;8.050;2023-12-14T09:32:48;7.60;99.90
25188;DHT22;13141;50.414;8.050;2023-12-14T09:35:14;7.60;99.90
25188;DHT22;13141;50.414;8.050;2023-12-14T09:37:40;7.60;99.90
25188;DHT22;13141;50.414;8.050;2023-12-14T09:40:08;7.80;99.90
25188;DHT22;13141;50.414;8.050;2023-12-14T09:42:39;7.70;99.90
25188;DHT22;13141;50.414;8.050;2023-12-14T09:45:07;7.70;99.90
25188;DHT22;13141;50.414;8.050;2023-12-14T09:47:38;7.70;99.90
25188;DHT22;13141;50.414;8.050;2023-12-14T09:50:15;7.80;99.90
25188;DHT22;13141;50.414;8.050;2023-12-14T09:52:41;7.90;99.90
25188;DHT22;13141;50.414;8.050;2023-12-14T09:55:09;7.90;99.90
25188;DHT22;13141;50.414;8.050;2023-12-14T10:00:58;7.80;99.90
25188;DHT22;13141;50.414;8.050;2023-12-14T10:03:27;7.90;99.90
25188;DHT22;13141;50.414;8.050;2023-12-14T10:05:55;7.90;99.90
25188;DHT22;13141;50.414;8.050;2023-12-14T10:08:25;7.90;99.90
25188;DHT22;13141;50.414;8.050;2023-12-14T10:10:54;7.90;99.90
25188;DHT22;13141;50.414;8.050;2023-12-14T10:13:21;7.90;99.90
25188;DHT22;13141;50.414;8.050;2023-12-14T10:15:50;7.60;99.90
25188;DHT22;13141;50.414;8.050;2023-12-14T10:18:42;7.90;99.90
25188;DHT22;13141;50.414;8.050;2023-12-14T10:21:11;7.90;99.90
25188;DHT22;13141;50.414;8.050;2023-12-14T10:23:36;7.50;99.90
25188;DHT22;13141;50.414;8.050;2023-12-14T10:26:04;7.90;99.90
25188;DHT22;13141;50.414;8.050;2023-12-14T10:28:30;8.00;99.90
25188;DHT22;13141;50.414;8.050;2023-12-14T10:30:56;7.90;99.90
25188;DHT22;13141;50.414;8.050;2023-12-14T10:33:21;8.00;99.90
25188;DHT22;13141;50.414;8.050;2023-12-14T10:35:49;7.70;99.90
25188;DHT22;13141;50.414;8.050;2023-12-14T10:38:15;7.90;99.90
25188;DHT22;13141;50.414;8.050;2023-12-14T10:40:43;8.30;99.90
25188;DHT22;13141;50.414;8.050;2023-12-14T10:43:10;8.00;99.90
25188;DHT22;13141;50.414;8.050;2023-12-14T10:45:38;8.00;99.90
25188;DHT22;13141;50.414;8.050;2023-12-14T10:48:04;8.10;99.90
25188;DHT22;13141;50.414;8.050;2023-12-14T10:50:31;7.90;99.90
25188;DHT22;13141;50.414;8.050;2023-12-14T10:52:59;7.90;99.90
25188;DHT22;13141;50.414;8.050;2023-12-14T10:55:28;7.90;99.90
25188;DHT22;13141;50.414;8.050;2023-12-14T10:57:54;7.90;99.90
25188;DHT22;13141;50.414;8.050;2023-12-14T11:00:20;7.90;99.90
25188;DHT22;13141;50.414;8.050;2023-12-14T11:02:46;8.00;99.90
25188;DHT22;13141;50.414;8.050;2023-12-14T11:05:13;8.00;99.90
25188;DHT22;13141;50.414;8.050;2023-12-14T11:07:47;8.10;99.90
25188;DHT22;13141;50.414;8.050;2023-12-14T11:10:14;8.00;99.90
25188;DHT22;13141;50.414;8.050;2023-12-14T11:12:57;8.00;99.90
25188;DHT22;13141;50.414;8.050;2023-12-14T11:15:23;8.00;99.90
25188;DHT22;13141;50.414;8.050;2023-12-14T11:18:20;8.10;99.90
25188;DHT22;13141;50.414;8.050;2023-12-14T11:20:50;8.10;99.90
25188;DHT22;13141;50.414;8.050;2023-12-14T11:23:17;8.10;99.90
25188;DHT22;13141;50.414;8.050;2023-12-14T11:25:48;8.10;99.90
25188;DHT22;13141;50.414;8.050;2023-12-14T11:28:14;8.10;99.90
25188;DHT22;13141;50.414;8.050;2023-12-14T11:30:39;8.10;99.90
25188;DHT22;13141;50.414;8.050;2023-12-14T11:33:05;8.20;99.90
25188;DHT22;13141;50.414;8.050;2023-12-14T11:35:31;7.80;99.90
25188;DHT22;13141;50.414;8.050;2023-12-14T11:37:57;8.20;99.90
25188;DHT22;13141;50.414;8.050;2023-12-14T11:40:22;8.30;99.90
25188;DHT22;13141;50.414;8.050;2023-12-14T11:42:58;8.30;99.90
25188;DHT22;13141;50.414;8.050;2023-12-14T11:45:24;8.30;99.90
25188;DHT22;13141;50.414;8.050;2023-12-14T11:47:49;8.30;99.90
25188;DHT22;13141;50.414;8.050;2023-12-14T11:50:15;8.30;99.90
25188;DHT22;13141;50.414;8.050;2023-12-14T11:52:41;8.30;99.90
25188;DHT22;13141;50.414;8.050;2023-12-14T11:55:09;8.30;99.90
25188;DHT22;13141;50.414;8.050;2023-12-14T11:57:35;8.30;99.90
25188;DHT22;13141;50.414;8.050;2023-12-14T12:00:04;8.30;99.90
25188;DHT22;13141;50.414;8.050;2023-12-14T12:02:30;8.30;99.90
25188;DHT22;13141;50.414;8.050;2023-12-14T12:04:55;8.30;99.90
25188;DHT22;13141;50.414;8.050;2023-12-14T12:07:21;8.30;99.90
25188;DHT22;13141;50.414;8.050;2023-12-14T12:09:47;8.30;99.90
25188;DHT22;13141;50.414;8.050;2023-12-14T12:12:13;8.30;99.90
25188;DHT22;13141;50.414;8.050;2023-12-14T12:14:39;8.30;99.90
25188;DHT22;13141;50.414;8.050;2023-12-14T12:17:06;8.40;99.90
25188;DHT22;13141;50.414;8.050;2023-12-14T12:19:33;8.30;99.90
25188;DHT22;13141;50.414;8.050;2023-12-14T12:21:58;8.30;99.90
25188;DHT22;13141;50.414;8.050;2023-12-14T12:24:24;8.30;99.90
25188;DHT22;13141;50.414;8.050;2023-12-14T12:26:50;8.30;99.90
25188;DHT22;13141;50.414;8.050;2023-12-14T12:29:16;8.20;99.90
25188;DHT22;13141;50.414;8.050;2023-12-14T12:31:41;8.20;99.90
25188;DHT22;13141;50.414;8.050;2023-12-14T12:34:08;8.10;99.90
25188;DHT22;13141;50.414;8.050;2023-12-14T12:36:34;8.10;99.90
25188;DHT22;13141;50.414;8.050;2023-12-14T12:39:00;8.10;99.90
25188;DHT22;13141;50.414;8.050;2023-12-14T12:41:26;8.10;99.90
25188;DHT22;13141;50.414;8.050;2023-12-14T12:43:51;8.00;99.90
25188;DHT22;13141;50.414;8.050;2023-12-14T12:46:17;8.00;99.90
25188;DHT22;13141;50.414;8.050;2023-12-14T12:48:43;8.30;99.90
25188;DHT22;13141;50.414;8.050;2023-12-14T12:51:10;8.10;99.90
25188;DHT22;13141;50.414;8.050;2023-12-14T12:53:35;8.10;99.90
25188;DHT22;13141;50.414;8.050;2023-12-14T12:56:01;8.10;99.90
25188;DHT22;13141;50.414;8.050;2023-12-14T12:58:27;8.10;99.90
25188;DHT22;13141;50.414;8.050;2023-12-14T13:00:52;8.20;99.90
25188;DHT22;13141;50.414;8.050;2023-12-14T13:03:18;8.20;99.90
25188;DHT22;13141;50.414;8.050;2023-12-14T13:05:43;8.30;99.90
25188;DHT22;13141;50.414;8.050;2023-12-14T13:08:13;8.30;99.90
25188;DHT22;13141;50.414;8.050;2023-12-14T13:10:40;8.30;99.90
25188;DHT22;13141;50.414;8.050;2023-12-14T13:13:05;8.30;99.90
25188;DHT22;13141;50.414;8.050;2023-12-14T13:15:31;8.30;99.90
25188;DHT22;13141;50.414;8.050;2023-12-14T13:17:57;8.30;99.90
25188;DHT22;13141;50.414;8.050;2023-12-14T13:20:23;8.30;99.90
25188;DHT22;13141;50.414;8.050;2023-12-14T13:22:48;8.30;99.90
25188;DHT22;13141;50.414;8.050;2023-12-14T13:25:16;8.30;99.90
25188;DHT22;13141;50.414;8.050;2023-12-14T13:27:41;8.30;99.90
25188;DHT22;13141;50.414;8.050;2023-12-14T13:30:07;8.30;99.90
25188;DHT22;13141;50.414;8.050;2023-12-14T13:32:33;8.30;99.90
25188;DHT22;13141;50.414;8.050;2023-12-14T13:34:59;8.20;99.90
25188;DHT22;13141;50.414;8.050;2023-12-14T13:37:24;8.20;99.90
25188;DHT22;13141;50.414;8.050;2023-12-14T13:39:50;8.20;99.90
25188;DHT22;13141;50.414;8.050;2023-12-14T13:42:17;8.10;99.90
25188;DHT22;13141;50.414;8.050;2023-12-14T13:44:43;8.10;99.90
25188;DHT22;13141;50.414;8.050;2023-12-14T13:47:08;8.10;99.90
25188;DHT22;13141;50.414;8.050;2023-12-14T13:49:34;8.10;99.90
25188;DHT22;13141;50.414;8.050;2023-12-14T13:52:00;8.00;99.90
25188;DHT22;13141;50.414;8.050;2023-12-14T13:54:25;8.00;99.90
25188;DHT22;13141;50.414;8.050;2023-12-14T13:56:51;8.00;99.90
25188;DHT22;13141;50.414;8.050;2023-12-14T13:59:18;8.00;99.90
25188;DHT22;13141;50.414;8.050;2023-12-14T14:01:45;8.00;99.90
25188;DHT22;13141;50.414;8.050;2023-12-14T14:04:11;8.00;99.90
25188;DHT22;13141;50.414;8.050;2023-12-14T14:06:36;7.90;99.90
25188;DHT22;13141;50.414;8.050;2023-12-14T14:09:02;7.90;99.90
25188;DHT22;13141;50.414;8.050;2023-12-14T14:11:28;7.90;99.90
25188;DHT22;13141;50.414;8.050;2023-12-14T14:13:53;7.90;99.90
25188;DHT22;13141;50.414;8.050;2023-12-14T14:16:23;7.90;99.90
25188;DHT22;13141;50.414;8.050;2023-12-14T14:18:48;7.80;99.90
25188;DHT22;13141;50.414;8.050;2023-12-14T14:21:14;7.80;99.90
25188;DHT22;13141;50.414;8.050;2023-12-14T14:23:39;7.80;99.90
25188;DHT22;13141;50.414;8.050;2023-12-14T14:26:05;7.80;99.90
25188;DHT22;13141;50.414;8.050;2023-12-14T14:28:31;7.80;99.90
25188;DHT22;13141;50.414;8.050;2023-12-14T14:30:57;7.80;99.90
25188;DHT22;13141;50.414;8.050;2023-12-14T14:33:24;7.80;99.90
25188;DHT22;13141;50.414;8.050;2023-12-14T14:35:49;7.90;99.90
25188;DHT22;13141;50.414;8.050;2023-12-14T14:38:15;7.80;99.90
25188;DHT22;13141;50.414;8.050;2023-12-14T14:40:41;7.80;99.90
25188;DHT22;13141;50.414;8.050;2023-12-14T14:43:07;7.80;99.90
25188;DHT22;13141;50.414;8.050;2023-12-14T14:45:33;7.80;99.90
25188;DHT22;13141;50.414;8.050;2023-12-14T14:47:59;7.80;99.90
25188;DHT22;13141;50.414;8.050;2023-12-14T14:50:26;7.70;99.90
25188;DHT22;13141;50.414;8.050;2023-12-14T14:52:52;7.80;99.90
25188;DHT22;13141;50.414;8.050;2023-12-14T14:55:17;7.70;99.90
25188;DHT22;13141;50.414;8.050;2023-12-14T14:57:43;7.70;99.90
25188;DHT22;13141;50.414;8.050;2023-12-14T15:00:09;7.60;99.90
25188;DHT22;13141;50.414;8.050;2023-12-14T15:02:35;7.60;99.90
25188;DHT22;13141;50.414;8.050;2023-12-14T15:05:01;7.50;99.90
25188;DHT22;13141;50.414;8.050;2023-12-14T15:07:28;7.50;99.90
25188;DHT22;13141;50.414;8.050;2023-12-14T15:09:54;7.50;99.90
25188;DHT22;13141;50.414;8.050;2023-12-14T15:12:19;7.50;99.90
25188;DHT22;13141;50.414;8.050;2023-12-14T15:14:45;7.40;99.90
25188;DHT22;13141;50.414;8.050;2023-12-14T15:17:12;7.40;99.90
25188;DHT22;13141;50.414;8.050;2023-12-14T15:19:38;7.40;99.90
25188;DHT22;13141;50.414;8.050;2023-12-14T15:22:04;7.40;99.90
25188;DHT22;13141;50.414;8.050;2023-12-14T15:24:31;7.30;99.90
25188;DHT22;13141;50.414;8.050;2023-12-14T15:26:57;6.90;99.90
25188;DHT22;13141;50.414;8.050;2023-12-14T15:29:22;7.30;99.90
25188;DHT22;13141;50.414;8.050;2023-12-14T15:31:48;7.20;99.90
25188;DHT22;13141;50.414;8.050;2023-12-14T15:34:14;7.20;99.90
25188;DHT22;13141;50.414;8.050;2023-12-14T15:36:39;7.20;99.90
25188;DHT22;13141;50.414;8.050;2023-12-14T15:39:05;7.20;99.90
25188;DHT22;13141;50.414;8.050;2023-12-14T15:41:32;7.10;99.90
25188;DHT22;13141;50.414;8.050;2023-12-14T15:43:57;7.20;99.90